sensor_id;sensor_type;location;lat;lon;timestamp;P1;durP1;ratioP1;P2;durP2;ratioP2
51618;SDS011;38518;53.164;5.430;2022-08-19T00:01:07;10.07;;;9.13;;
51618;SDS011;38518;53.164;5.430;2022-08-19T00:03:33;9.82;;;8.82;;
51618;SDS011;38518;53.164;5.430;2022-08-19T00:05:59;10.00;;;9.10;;
51618;SDS011;38518;53.164;5.430;2022-08-19T00:08:25;11.85;;;8.98;;
51618;SDS011;38518;53.164;5.430;2022-08-19T00:10:51;9.57;;;8.63;;
51618;SDS011;38518;53.164;5.430;2022-08-19T00:13:17;9.73;;;8.82;;
51618;SDS011;38518;53.164;5.430;2022-08-19T00:15:43;10.25;;;9.40;;
51618;SDS011;38518;53.164;5.430;2022-08-19T00:18:09;10.02;;;9.02;;
51618;SDS011;38518;53.164;5.430;2022-08-19T00:20:36;10.63;;;9.43;;
51618;SDS011;38518;53.164;5.430;2022-08-19T00:23:05;10.48;;;9.48;;
51618;SDS011;38518;53.164;5.430;2022-08-19T00:25:32;9.40;;;8.60;;
51618;SDS011;38518;53.164;5.430;2022-08-19T00:27:58;9.90;;;8.93;;
51618;SDS011;38518;53.164;5.430;2022-08-19T00:30:24;11.02;;;9.98;;
51618;SDS011;38518;53.164;5.430;2022-08-19T00:32:52;10.75;;;9.65;;
51618;SDS011;38518;53.164;5.430;2022-08-19T00:35:20;10.48;;;9.40;;
51618;SDS011;38518;53.164;5.430;2022-08-19T00:37:47;10.75;;;9.65;;
51618;SDS011;38518;53.164;5.430;2022-08-19T00:40:14;10.63;;;9.57;;
51618;SDS011;38518;53.164;5.430;2022-08-19T00:42:41;10.95;;;9.82;;
51618;SDS011;38518;53.164;5.430;2022-08-19T00:45:09;10.93;;;9.82;;
51618;SDS011;38518;53.164;5.430;2022-08-19T00:47:44;10.52;;;9.43;;
51618;SDS011;38518;53.164;5.430;2022-08-19T00:50:11;10.13;;;9.13;;
51618;SDS011;38518;53.164;5.430;2022-08-19T00:52:42;12.65;;;9.73;;
51618;SDS011;38518;53.164;5.430;2022-08-19T00:55:10;10.40;;;9.40;;
51618;SDS011;38518;53.164;5.430;2022-08-19T00:57:41;10.48;;;9.48;;
51618;SDS011;38518;53.164;5.430;2022-08-19T01:00:13;11.05;;;9.95;;
51618;SDS011;38518;53.164;5.430;2022-08-19T01:02:41;10.50;;;9.50;;
51618;SDS011;38518;53.164;5.430;2022-08-19T01:05:08;11.68;;;10.60;;
51618;SDS011;38518;53.164;5.430;2022-08-19T01:07:37;10.88;;;9.88;;
51618;SDS011;38518;53.164;5.430;2022-08-19T01:10:06;12.60;;;10.38;;
51618;SDS011;38518;53.164;5.430;2022-08-19T01:12:35;10.98;;;10.00;;
51618;SDS011;38518;53.164;5.430;2022-08-19T01:15:02;10.75;;;9.85;;
51618;SDS011;38518;53.164;5.430;2022-08-19T01:17:28;11.23;;;10.23;;
51618;SDS011;38518;53.164;5.430;2022-08-19T01:19:54;11.70;;;10.50;;
51618;SDS011;38518;53.164;5.430;2022-08-19T01:24:50;11.45;;;10.45;;
51618;SDS011;38518;53.164;5.430;2022-08-19T01:27:16;11.82;;;10.63;;
51618;SDS011;38518;53.164;5.430;2022-08-19T01:29:43;11.88;;;10.68;;
51618;SDS011;38518;53.164;5.430;2022-08-19T01:32:11;11.00;;;10.00;;
51618;SDS011;38518;53.164;5.430;2022-08-19T01:34:39;11.32;;;10.32;;
51618;SDS011;38518;53.164;5.430;2022-08-19T01:37:06;12.10;;;10.95;;
51618;SDS011;38518;53.164;5.430;2022-08-19T01:39:36;12.18;;;10.93;;
51618;SDS011;38518;53.164;5.430;2022-08-19T01:42:04;11.27;;;10.27;;
51618;SDS011;38518;53.164;5.430;2022-08-19T01:44:32;10.95;;;9.95;;
51618;SDS011;38518;53.164;5.430;2022-08-19T01:46:58;10.70;;;9.80;;
51618;SDS011;38518;53.164;5.430;2022-08-19T01:49:24;12.15;;;11.05;;
51618;SDS011;38518;53.164;5.430;2022-08-19T01:51:52;12.57;;;10.57;;
51618;SDS011;38518;53.164;5.430;2022-08-19T01:54:20;12.38;;;11.07;;
51618;SDS011;38518;53.164;5.430;2022-08-19T01:56:48;11.63;;;10.52;;
51618;SDS011;38518;53.164;5.430;2022-08-19T01:59:17;11.98;;;10.90;;
51618;SDS011;38518;53.164;5.430;2022-08-19T02:01:45;12.73;;;10.32;;
51618;SDS011;38518;53.164;5.430;2022-08-19T02:04:11;10.57;;;9.63;;
51618;SDS011;38518;53.164;5.430;2022-08-19T02:06:37;11.80;;;10.65;;
51618;SDS011;38518;53.164;5.430;2022-08-19T02:09:06;12.48;;;11.23;;
51618;SDS011;38518;53.164;5.430;2022-08-19T02:11:34;11.32;;;10.13;;
51618;SDS011;38518;53.164;5.430;2022-08-19T02:14:02;11.07;;;10.07;;
51618;SDS011;38518;53.164;5.430;2022-08-19T02:16:30;12.23;;;10.95;;
51618;SDS011;38518;53.164;5.430;2022-08-19T02:18:57;11.20;;;10.13;;
51618;SDS011;38518;53.164;5.430;2022-08-19T02:21:25;11.48;;;10.38;;
51618;SDS011;38518;53.164;5.430;2022-08-19T02:23:52;10.70;;;9.77;;
51618;SDS011;38518;53.164;5.430;2022-08-19T02:26:21;11.23;;;10.18;;
51618;SDS011;38518;53.164;5.430;2022-08-19T02:28:47;12.23;;;11.02;;
51618;SDS011;38518;53.164;5.430;2022-08-19T02:31:18;11.63;;;10.43;;
51618;SDS011;38518;53.164;5.430;2022-08-19T02:33:46;10.35;;;9.35;;
51618;SDS011;38518;53.164;5.430;2022-08-19T02:36:12;10.52;;;9.43;;
51618;SDS011;38518;53.164;5.430;2022-08-19T02:38:39;13.10;;;10.57;;
51618;SDS011;38518;53.164;5.430;2022-08-19T02:41:20;10.57;;;9.45;;
51618;SDS011;38518;53.164;5.430;2022-08-19T02:43:47;11.20;;;10.10;;
51618;SDS011;38518;53.164;5.430;2022-08-19T02:46:21;10.65;;;9.60;;
51618;SDS011;38518;53.164;5.430;2022-08-19T02:48:49;11.10;;;9.98;;
51618;SDS011;38518;53.164;5.430;2022-08-19T02:51:20;11.23;;;10.10;;
51618;SDS011;38518;53.164;5.430;2022-08-19T02:53:48;11.40;;;10.30;;
51618;SDS011;38518;53.164;5.430;2022-08-19T02:56:13;10.70;;;9.70;;
51618;SDS011;38518;53.164;5.430;2022-08-19T02:58:40;10.93;;;9.82;;
51618;SDS011;38518;53.164;5.430;2022-08-19T03:01:06;11.48;;;10.27;;
51618;SDS011;38518;53.164;5.430;2022-08-19T03:03:32;11.82;;;10.63;;
51618;SDS011;38518;53.164;5.430;2022-08-19T03:08:35;11.02;;;9.93;;
51618;SDS011;38518;53.164;5.430;2022-08-19T03:11:01;11.20;;;10.10;;
51618;SDS011;38518;53.164;5.430;2022-08-19T03:13:28;11.68;;;10.43;;
51618;SDS011;38518;53.164;5.430;2022-08-19T03:15:54;12.23;;;10.98;;
51618;SDS011;38518;53.164;5.430;2022-08-19T03:18:19;12.35;;;11.15;;
51618;SDS011;38518;53.164;5.430;2022-08-19T03:20:47;12.13;;;10.93;;
51618;SDS011;38518;53.164;5.430;2022-08-19T03:23:14;13.50;;;12.10;;
51618;SDS011;38518;53.164;5.430;2022-08-19T03:25:41;13.25;;;11.85;;
51618;SDS011;38518;53.164;5.430;2022-08-19T03:28:12;12.93;;;11.10;;
51618;SDS011;38518;53.164;5.430;2022-08-19T03:30:40;12.60;;;11.30;;
51618;SDS011;38518;53.164;5.430;2022-08-19T03:33:07;12.63;;;10.90;;
51618;SDS011;38518;53.164;5.430;2022-08-19T03:35:34;13.25;;;11.95;;
51618;SDS011;38518;53.164;5.430;2022-08-19T03:38:02;12.32;;;11.13;;
51618;SDS011;38518;53.164;5.430;2022-08-19T03:40:28;13.20;;;11.82;;
51618;SDS011;38518;53.164;5.430;2022-08-19T03:42:55;12.45;;;11.20;;
51618;SDS011;38518;53.164;5.430;2022-08-19T03:45:22;12.93;;;11.73;;
51618;SDS011;38518;53.164;5.430;2022-08-19T03:47:48;13.35;;;12.07;;
51618;SDS011;38518;53.164;5.430;2022-08-19T03:50:14;13.30;;;11.90;;
51618;SDS011;38518;53.164;5.430;2022-08-19T03:52:40;12.50;;;11.13;;
51618;SDS011;38518;53.164;5.430;2022-08-19T03:55:06;14.05;;;12.68;;
51618;SDS011;38518;53.164;5.430;2022-08-19T03:57:33;14.02;;;12.32;;
51618;SDS011;38518;53.164;5.430;2022-08-19T03:59:59;14.25;;;12.82;;
51618;SDS011;38518;53.164;5.430;2022-08-19T04:02:25;14.93;;;12.68;;
51618;SDS011;38518;53.164;5.430;2022-08-19T04:04:53;13.23;;;11.93;;
51618;SDS011;38518;53.164;5.430;2022-08-19T04:07:19;15.00;;;13.13;;
51618;SDS011;38518;53.164;5.430;2022-08-19T04:09:46;14.45;;;12.80;;
51618;SDS011;38518;53.164;5.430;2022-08-19T04:12:13;14.43;;;12.27;;
51618;SDS011;38518;53.164;5.430;2022-08-19T04:14:40;14.30;;;12.55;;
51618;SDS011;38518;53.164;5.430;2022-08-19T04:17:06;14.00;;;12.60;;
51618;SDS011;38518;53.164;5.430;2022-08-19T04:19:33;13.18;;;11.77;;
51618;SDS011;38518;53.164;5.430;2022-08-19T04:22:00;13.95;;;12.55;;
51618;SDS011;38518;53.164;5.430;2022-08-19T04:24:26;14.48;;;12.93;;
51618;SDS011;38518;53.164;5.430;2022-08-19T04:26:52;14.13;;;12.73;;
51618;SDS011;38518;53.164;5.430;2022-08-19T04:29:19;13.75;;;12.30;;
51618;SDS011;38518;53.164;5.430;2022-08-19T04:31:49;13.52;;;12.13;;
51618;SDS011;38518;53.164;5.430;2022-08-19T04:34:17;15.10;;;13.63;;
51618;SDS011;38518;53.164;5.430;2022-08-19T04:36:47;14.18;;;12.77;;
51618;SDS011;38518;53.164;5.430;2022-08-19T04:39:16;14.75;;;13.25;;
51618;SDS011;38518;53.164;5.430;2022-08-19T04:41:44;13.82;;;12.45;;
51618;SDS011;38518;53.164;5.430;2022-08-19T04:44:30;14.27;;;12.82;;
51618;SDS011;38518;53.164;5.430;2022-08-19T04:47:00;15.48;;;13.35;;
51618;SDS011;38518;53.164;5.430;2022-08-19T04:49:30;14.13;;;12.63;;
51618;SDS011;38518;53.164;5.430;2022-08-19T04:51:56;14.75;;;13.25;;
51618;SDS011;38518;53.164;5.430;2022-08-19T04:54:23;14.68;;;13.18;;
51618;SDS011;38518;53.164;5.430;2022-08-19T04:56:50;13.98;;;12.45;;
51618;SDS011;38518;53.164;5.430;2022-08-19T04:59:18;13.80;;;12.48;;
51618;SDS011;38518;53.164;5.430;2022-08-19T05:01:45;14.50;;;13.00;;
51618;SDS011;38518;53.164;5.430;2022-08-19T05:04:15;14.30;;;12.90;;
51618;SDS011;38518;53.164;5.430;2022-08-19T05:06:46;14.30;;;12.35;;
51618;SDS011;38518;53.164;5.430;2022-08-19T05:09:12;14.55;;;13.05;;
51618;SDS011;38518;53.164;5.430;2022-08-19T05:11:38;14.32;;;12.88;;
51618;SDS011;38518;53.164;5.430;2022-08-19T05:14:04;13.23;;;11.95;;
51618;SDS011;38518;53.164;5.430;2022-08-19T05:16:34;14.05;;;12.65;;
51618;SDS011;38518;53.164;5.430;2022-08-19T05:19:00;13.07;;;11.75;;
51618;SDS011;38518;53.164;5.430;2022-08-19T05:21:44;13.40;;;12.07;;
51618;SDS011;38518;53.164;5.430;2022-08-19T05:24:30;13.55;;;12.00;;
51618;SDS011;38518;53.164;5.430;2022-08-19T05:26:59;14.10;;;12.57;;
51618;SDS011;38518;53.164;5.430;2022-08-19T05:29:27;12.52;;;11.32;;
51618;SDS011;38518;53.164;5.430;2022-08-19T05:31:54;13.88;;;12.57;;
51618;SDS011;38518;53.164;5.430;2022-08-19T05:34:21;13.80;;;12.43;;
51618;SDS011;38518;53.164;5.430;2022-08-19T05:36:50;13.30;;;11.82;;
51618;SDS011;38518;53.164;5.430;2022-08-19T05:39:22;13.27;;;11.77;;
51618;SDS011;38518;53.164;5.430;2022-08-19T05:41:53;12.82;;;11.52;;
51618;SDS011;38518;53.164;5.430;2022-08-19T05:44:22;13.23;;;11.82;;
51618;SDS011;38518;53.164;5.430;2022-08-19T05:46:55;12.63;;;11.43;;
51618;SDS011;38518;53.164;5.430;2022-08-19T05:49:21;12.27;;;10.88;;
51618;SDS011;38518;53.164;5.430;2022-08-19T05:51:47;11.63;;;10.52;;
51618;SDS011;38518;53.164;5.430;2022-08-19T05:54:14;11.65;;;10.45;;
51618;SDS011;38518;53.164;5.430;2022-08-19T05:56:40;13.20;;;11.18;;
51618;SDS011;38518;53.164;5.430;2022-08-19T05:59:07;10.68;;;9.68;;
51618;SDS011;38518;53.164;5.430;2022-08-19T06:01:39;10.98;;;9.88;;
51618;SDS011;38518;53.164;5.430;2022-08-19T06:04:07;11.48;;;9.65;;
51618;SDS011;38518;53.164;5.430;2022-08-19T06:06:33;11.30;;;10.20;;
51618;SDS011;38518;53.164;5.430;2022-08-19T06:09:04;12.05;;;10.85;;
51618;SDS011;38518;53.164;5.430;2022-08-19T06:11:53;12.10;;;10.90;;
51618;SDS011;38518;53.164;5.430;2022-08-19T06:14:24;11.23;;;10.15;;
51618;SDS011;38518;53.164;5.430;2022-08-19T06:16:52;17.95;;;11.75;;
51618;SDS011;38518;53.164;5.430;2022-08-19T06:19:19;12.00;;;10.82;;
51618;SDS011;38518;53.164;5.430;2022-08-19T06:21:47;12.13;;;10.90;;
51618;SDS011;38518;53.164;5.430;2022-08-19T06:24:15;12.18;;;10.73;;
51618;SDS011;38518;53.164;5.430;2022-08-19T06:26:45;12.55;;;11.30;;
51618;SDS011;38518;53.164;5.430;2022-08-19T06:29:13;11.88;;;10.68;;
51618;SDS011;38518;53.164;5.430;2022-08-19T06:31:45;10.98;;;9.98;;
51618;SDS011;38518;53.164;5.430;2022-08-19T06:34:14;12.00;;;10.88;;
51618;SDS011;38518;53.164;5.430;2022-08-19T06:36:42;13.07;;;11.88;;
51618;SDS011;38518;53.164;5.430;2022-08-19T06:39:12;13.40;;;12.07;;
51618;SDS011;38518;53.164;5.430;2022-08-19T06:41:41;12.63;;;11.43;;
51618;SDS011;38518;53.164;5.430;2022-08-19T06:44:09;13.30;;;12.10;;
51618;SDS011;38518;53.164;5.430;2022-08-19T06:46:36;14.15;;;12.75;;
51618;SDS011;38518;53.164;5.430;2022-08-19T06:49:02;12.57;;;11.35;;
51618;SDS011;38518;53.164;5.430;2022-08-19T06:51:29;13.20;;;12.00;;
51618;SDS011;38518;53.164;5.430;2022-08-19T06:53:56;12.55;;;11.43;;
51618;SDS011;38518;53.164;5.430;2022-08-19T06:56:25;13.43;;;12.15;;
51618;SDS011;38518;53.164;5.430;2022-08-19T06:59:00;12.63;;;11.43;;
51618;SDS011;38518;53.164;5.430;2022-08-19T07:01:35;12.77;;;11.57;;
51618;SDS011;38518;53.164;5.430;2022-08-19T07:04:04;12.73;;;11.57;;
51618;SDS011;38518;53.164;5.430;2022-08-19T07:06:33;12.45;;;11.15;;
51618;SDS011;38518;53.164;5.430;2022-08-19T07:09:00;12.98;;;11.60;;
51618;SDS011;38518;53.164;5.430;2022-08-19T07:11:26;16.27;;;13.63;;
51618;SDS011;38518;53.164;5.430;2022-08-19T07:13:52;13.10;;;11.80;;
51618;SDS011;38518;53.164;5.430;2022-08-19T07:16:19;13.38;;;11.90;;
51618;SDS011;38518;53.164;5.430;2022-08-19T07:18:46;14.45;;;13.07;;
51618;SDS011;38518;53.164;5.430;2022-08-19T07:21:14;14.93;;;13.43;;
51618;SDS011;38518;53.164;5.430;2022-08-19T07:23:49;16.80;;;15.20;;
51618;SDS011;38518;53.164;5.430;2022-08-19T07:26:18;15.25;;;13.88;;
51618;SDS011;38518;53.164;5.430;2022-08-19T07:28:47;16.05;;;14.40;;
51618;SDS011;38518;53.164;5.430;2022-08-19T07:31:14;14.50;;;13.15;;
51618;SDS011;38518;53.164;5.430;2022-08-19T07:33:44;16.10;;;14.40;;
51618;SDS011;38518;53.164;5.430;2022-08-19T07:36:16;15.48;;;13.88;;
51618;SDS011;38518;53.164;5.430;2022-08-19T07:38:45;19.20;;;13.40;;
51618;SDS011;38518;53.164;5.430;2022-08-19T07:41:15;14.85;;;13.38;;
51618;SDS011;38518;53.164;5.430;2022-08-19T07:43:48;17.10;;;14.35;;
51618;SDS011;38518;53.164;5.430;2022-08-19T07:46:14;17.58;;;13.63;;
51618;SDS011;38518;53.164;5.430;2022-08-19T07:48:42;14.35;;;12.50;;
51618;SDS011;38518;53.164;5.430;2022-08-19T07:51:14;15.07;;;12.02;;
51618;SDS011;38518;53.164;5.430;2022-08-19T07:53:41;14.23;;;12.40;;
51618;SDS011;38518;53.164;5.430;2022-08-19T07:56:10;14.52;;;13.02;;
51618;SDS011;38518;53.164;5.430;2022-08-19T07:58:38;14.20;;;12.05;;
51618;SDS011;38518;53.164;5.430;2022-08-19T08:01:06;15.65;;;11.80;;
51618;SDS011;38518;53.164;5.430;2022-08-19T08:03:35;14.02;;;12.35;;
51618;SDS011;38518;53.164;5.430;2022-08-19T08:06:19;13.35;;;11.75;;
51618;SDS011;38518;53.164;5.430;2022-08-19T08:09:04;13.10;;;10.53;;
51618;SDS011;38518;53.164;5.430;2022-08-19T08:11:41;15.68;;;12.70;;
51618;SDS011;38518;53.164;5.430;2022-08-19T08:14:25;12.68;;;11.30;;
51618;SDS011;38518;53.164;5.430;2022-08-19T08:16:58;13.13;;;9.30;;
51618;SDS011;38518;53.164;5.430;2022-08-19T08:19:25;14.88;;;11.13;;
51618;SDS011;38518;53.164;5.430;2022-08-19T08:21:53;15.73;;;11.63;;
51618;SDS011;38518;53.164;5.430;2022-08-19T08:24:20;13.95;;;10.43;;
51618;SDS011;38518;53.164;5.430;2022-08-19T08:26:46;11.48;;;8.98;;
51618;SDS011;38518;53.164;5.430;2022-08-19T08:29:13;13.18;;;9.05;;
51618;SDS011;38518;53.164;5.430;2022-08-19T08:31:41;13.02;;;9.05;;
51618;SDS011;38518;53.164;5.430;2022-08-19T08:34:09;11.48;;;8.38;;
51618;SDS011;38518;53.164;5.430;2022-08-19T08:36:39;10.05;;;7.65;;
51618;SDS011;38518;53.164;5.430;2022-08-19T08:39:08;14.45;;;8.15;;
51618;SDS011;38518;53.164;5.430;2022-08-19T08:41:56;12.00;;;7.55;;
51618;SDS011;38518;53.164;5.430;2022-08-19T08:44:43;12.20;;;8.52;;
51618;SDS011;38518;53.164;5.430;2022-08-19T08:47:18;12.93;;;8.73;;
51618;SDS011;38518;53.164;5.430;2022-08-19T08:49:50;12.15;;;7.70;;
51618;SDS011;38518;53.164;5.430;2022-08-19T08:52:21;12.35;;;8.38;;
51618;SDS011;38518;53.164;5.430;2022-08-19T08:54:57;11.05;;;7.88;;
51618;SDS011;38518;53.164;5.430;2022-08-19T09:00:15;10.88;;;7.72;;
51618;SDS011;38518;53.164;5.430;2022-08-19T09:02:44;9.77;;;7.10;;
51618;SDS011;38518;53.164;5.430;2022-08-19T09:05:11;8.60;;;7.03;;
51618;SDS011;38518;53.164;5.430;2022-08-19T09:08:13;10.65;;;7.53;;
51618;SDS011;38518;53.164;5.430;2022-08-19T09:13:12;11.52;;;7.90;;
51618;SDS011;38518;53.164;5.430;2022-08-19T09:16:21;13.80;;;8.48;;
51618;SDS011;38518;53.164;5.430;2022-08-19T09:18:47;9.60;;;6.90;;
51618;SDS011;38518;53.164;5.430;2022-08-19T09:21:24;9.48;;;6.80;;
51618;SDS011;38518;53.164;5.430;2022-08-19T09:23:52;11.02;;;7.07;;
51618;SDS011;38518;53.164;5.430;2022-08-19T09:26:19;12.23;;;7.13;;
51618;SDS011;38518;53.164;5.430;2022-08-19T09:28:47;9.13;;;6.90;;
51618;SDS011;38518;53.164;5.430;2022-08-19T09:31:14;12.27;;;7.55;;
51618;SDS011;38518;53.164;5.430;2022-08-19T09:33:45;9.35;;;6.82;;
51618;SDS011;38518;53.164;5.430;2022-08-19T09:36:12;8.63;;;7.57;;
51618;SDS011;38518;53.164;5.430;2022-08-19T09:38:40;9.50;;;6.38;;
51618;SDS011;38518;53.164;5.430;2022-08-19T09:41:07;10.05;;;6.88;;
51618;SDS011;38518;53.164;5.430;2022-08-19T09:43:38;7.47;;;5.50;;
51618;SDS011;38518;53.164;5.430;2022-08-19T09:46:06;8.85;;;5.47;;
51618;SDS011;38518;53.164;5.430;2022-08-19T09:48:37;6.60;;;5.10;;
51618;SDS011;38518;53.164;5.430;2022-08-19T09:51:13;7.20;;;5.88;;
51618;SDS011;38518;53.164;5.430;2022-08-19T09:53:42;6.30;;;5.45;;
51618;SDS011;38518;53.164;5.430;2022-08-19T09:56:09;8.52;;;5.88;;
51618;SDS011;38518;53.164;5.430;2022-08-19T09:58:36;7.70;;;5.57;;
51618;SDS011;38518;53.164;5.430;2022-08-19T10:01:02;10.07;;;6.43;;
51618;SDS011;38518;53.164;5.430;2022-08-19T10:03:30;7.45;;;6.07;;
51618;SDS011;38518;53.164;5.430;2022-08-19T10:05:58;7.03;;;5.60;;
51618;SDS011;38518;53.164;5.430;2022-08-19T10:08:27;10.73;;;6.05;;
51618;SDS011;38518;53.164;5.430;2022-08-19T10:10:56;10.48;;;6.47;;
51618;SDS011;38518;53.164;5.430;2022-08-19T10:13:23;7.68;;;6.70;;
51618;SDS011;38518;53.164;5.430;2022-08-19T10:15:52;7.38;;;5.63;;
51618;SDS011;38518;53.164;5.430;2022-08-19T10:18:22;11.90;;;6.45;;
51618;SDS011;38518;53.164;5.430;2022-08-19T10:20:50;8.25;;;6.35;;
51618;SDS011;38518;53.164;5.430;2022-08-19T10:23:18;8.63;;;6.25;;
51618;SDS011;38518;53.164;5.430;2022-08-19T10:25:45;6.65;;;5.68;;
51618;SDS011;38518;53.164;5.430;2022-08-19T10:28:11;9.80;;;6.75;;
51618;SDS011;38518;53.164;5.430;2022-08-19T10:30:38;8.15;;;6.65;;
51618;SDS011;38518;53.164;5.430;2022-08-19T10:33:04;7.00;;;6.30;;
51618;SDS011;38518;53.164;5.430;2022-08-19T10:35:30;6.00;;;5.03;;
51618;SDS011;38518;53.164;5.430;2022-08-19T10:37:56;7.47;;;6.47;;
51618;SDS011;38518;53.164;5.430;2022-08-19T10:40:24;7.05;;;5.65;;
51618;SDS011;38518;53.164;5.430;2022-08-19T10:42:52;7.43;;;6.72;;
51618;SDS011;38518;53.164;5.430;2022-08-19T10:45:18;7.88;;;6.75;;
51618;SDS011;38518;53.164;5.430;2022-08-19T10:47:47;9.05;;;6.85;;
51618;SDS011;38518;53.164;5.430;2022-08-19T10:50:13;9.43;;;6.75;;
51618;SDS011;38518;53.164;5.430;2022-08-19T10:52:56;8.03;;;6.60;;
51618;SDS011;38518;53.164;5.430;2022-08-19T10:55:23;8.13;;;6.53;;
51618;SDS011;38518;53.164;5.430;2022-08-19T10:58:15;7.10;;;6.40;;
51618;SDS011;38518;53.164;5.430;2022-08-19T11:00:42;9.60;;;6.55;;
51618;SDS011;38518;53.164;5.430;2022-08-19T11:03:09;6.32;;;5.55;;
51618;SDS011;38518;53.164;5.430;2022-08-19T11:05:35;9.70;;;6.30;;
51618;SDS011;38518;53.164;5.430;2022-08-19T11:08:03;9.23;;;6.50;;
51618;SDS011;38518;53.164;5.430;2022-08-19T11:10:28;8.02;;;6.10;;
51618;SDS011;38518;53.164;5.430;2022-08-19T11:12:54;7.05;;;6.35;;
51618;SDS011;38518;53.164;5.430;2022-08-19T11:15:20;6.20;;;5.25;;
51618;SDS011;38518;53.164;5.430;2022-08-19T11:17:46;8.52;;;5.65;;
51618;SDS011;38518;53.164;5.430;2022-08-19T11:20:13;8.38;;;5.57;;
51618;SDS011;38518;53.164;5.430;2022-08-19T11:22:43;6.63;;;5.30;;
51618;SDS011;38518;53.164;5.430;2022-08-19T11:25:09;7.38;;;4.85;;
51618;SDS011;38518;53.164;5.430;2022-08-19T11:27:40;5.93;;;5.32;;
51618;SDS011;38518;53.164;5.430;2022-08-19T11:30:08;6.75;;;5.47;;
51618;SDS011;38518;53.164;5.430;2022-08-19T11:32:34;5.93;;;5.40;;
51618;SDS011;38518;53.164;5.430;2022-08-19T11:35:00;7.55;;;5.25;;
51618;SDS011;38518;53.164;5.430;2022-08-19T11:37:25;7.03;;;5.50;;
51618;SDS011;38518;53.164;5.430;2022-08-19T11:39:52;6.72;;;4.95;;
51618;SDS011;38518;53.164;5.430;2022-08-19T11:42:18;5.68;;;5.18;;
51618;SDS011;38518;53.164;5.430;2022-08-19T11:45:02;7.07;;;5.10;;
51618;SDS011;38518;53.164;5.430;2022-08-19T11:47:29;9.02;;;5.60;;
51618;SDS011;38518;53.164;5.430;2022-08-19T11:49:55;6.30;;;5.70;;
51618;SDS011;38518;53.164;5.430;2022-08-19T11:52:21;7.25;;;5.90;;
51618;SDS011;38518;53.164;5.430;2022-08-19T11:54:47;6.22;;;5.47;;
51618;SDS011;38518;53.164;5.430;2022-08-19T11:57:13;6.90;;;5.70;;
51618;SDS011;38518;53.164;5.430;2022-08-19T11:59:41;6.28;;;5.43;;
51618;SDS011;38518;53.164;5.430;2022-08-19T12:02:12;6.88;;;5.55;;
51618;SDS011;38518;53.164;5.430;2022-08-19T12:04:40;5.80;;;4.93;;
51618;SDS011;38518;53.164;5.430;2022-08-19T12:07:06;5.25;;;4.75;;
51618;SDS011;38518;53.164;5.430;2022-08-19T12:09:32;6.25;;;5.65;;
51618;SDS011;38518;53.164;5.430;2022-08-19T12:11:59;7.03;;;5.20;;
51618;SDS011;38518;53.164;5.430;2022-08-19T12:14:26;6.32;;;5.40;;
51618;SDS011;38518;53.164;5.430;2022-08-19T12:16:55;7.18;;;5.90;;
51618;SDS011;38518;53.164;5.430;2022-08-19T12:19:21;6.13;;;5.32;;
51618;SDS011;38518;53.164;5.430;2022-08-19T12:21:47;8.27;;;6.03;;
51618;SDS011;38518;53.164;5.430;2022-08-19T12:24:13;6.50;;;5.03;;
51618;SDS011;38518;53.164;5.430;2022-08-19T12:26:39;8.00;;;6.10;;
51618;SDS011;38518;53.164;5.430;2022-08-19T12:29:04;6.75;;;5.35;;
51618;SDS011;38518;53.164;5.430;2022-08-19T12:31:30;6.05;;;5.18;;
51618;SDS011;38518;53.164;5.430;2022-08-19T12:33:56;6.75;;;5.35;;
51618;SDS011;38518;53.164;5.430;2022-08-19T12:36:23;5.55;;;4.97;;
51618;SDS011;38518;53.164;5.430;2022-08-19T12:38:50;6.50;;;5.32;;
51618;SDS011;38518;53.164;5.430;2022-08-19T12:41:16;6.30;;;5.57;;
51618;SDS011;38518;53.164;5.430;2022-08-19T12:43:43;5.88;;;5.28;;
51618;SDS011;38518;53.164;5.430;2022-08-19T12:46:10;6.13;;;5.22;;
51618;SDS011;38518;53.164;5.430;2022-08-19T12:48:36;5.93;;;5.32;;
51618;SDS011;38518;53.164;5.430;2022-08-19T12:51:08;5.85;;;5.32;;
51618;SDS011;38518;53.164;5.430;2022-08-19T12:53:35;6.78;;;6.10;;
51618;SDS011;38518;53.164;5.430;2022-08-19T12:56:02;7.15;;;5.78;;
51618;SDS011;38518;53.164;5.430;2022-08-19T12:58:28;5.95;;;5.32;;
51618;SDS011;38518;53.164;5.430;2022-08-19T13:00:54;6.68;;;5.97;;
51618;SDS011;38518;53.164;5.430;2022-08-19T13:03:20;6.47;;;5.45;;
51618;SDS011;38518;53.164;5.430;2022-08-19T13:05:50;6.68;;;5.53;;
51618;SDS011;38518;53.164;5.430;2022-08-19T13:08:16;7.43;;;4.90;;
51618;SDS011;38518;53.164;5.430;2022-08-19T13:10:42;6.00;;;5.22;;
51618;SDS011;38518;53.164;5.430;2022-08-19T13:13:08;5.35;;;4.85;;
51618;SDS011;38518;53.164;5.430;2022-08-19T13:15:37;6.50;;;4.70;;
51618;SDS011;38518;53.164;5.430;2022-08-19T13:18:08;6.25;;;5.15;;
51618;SDS011;38518;53.164;5.430;2022-08-19T13:20:35;6.43;;;5.82;;
51618;SDS011;38518;53.164;5.430;2022-08-19T13:23:02;5.05;;;4.45;;
51618;SDS011;38518;53.164;5.430;2022-08-19T13:25:29;5.60;;;4.75;;
51618;SDS011;38518;53.164;5.430;2022-08-19T13:27:55;5.75;;;4.95;;
51618;SDS011;38518;53.164;5.430;2022-08-19T13:30:21;7.20;;;5.63;;
51618;SDS011;38518;53.164;5.430;2022-08-19T13:33:06;5.53;;;5.03;;
51618;SDS011;38518;53.164;5.430;2022-08-19T13:35:36;5.03;;;4.53;;
51618;SDS011;38518;53.164;5.430;2022-08-19T13:38:08;5.88;;;5.28;;
51618;SDS011;38518;53.164;5.430;2022-08-19T13:40:35;6.05;;;4.80;;
51618;SDS011;38518;53.164;5.430;2022-08-19T13:43:02;5.65;;;4.00;;
51618;SDS011;38518;53.164;5.430;2022-08-19T13:45:29;4.85;;;4.25;;
51618;SDS011;38518;53.164;5.430;2022-08-19T13:47:58;5.63;;;4.00;;
51618;SDS011;38518;53.164;5.430;2022-08-19T13:50:26;4.88;;;3.70;;
51618;SDS011;38518;53.164;5.430;2022-08-19T13:52:53;5.10;;;4.20;;
51618;SDS011;38518;53.164;5.430;2022-08-19T13:55:20;4.05;;;3.47;;
51618;SDS011;38518;53.164;5.430;2022-08-19T13:57:50;3.20;;;2.80;;
51618;SDS011;38518;53.164;5.430;2022-08-19T14:00:20;3.45;;;3.15;;
51618;SDS011;38518;53.164;5.430;2022-08-19T14:02:50;5.03;;;4.00;;
51618;SDS011;38518;53.164;5.430;2022-08-19T14:05:16;6.63;;;4.43;;
51618;SDS011;38518;53.164;5.430;2022-08-19T14:07:42;4.70;;;3.72;;
51618;SDS011;38518;53.164;5.430;2022-08-19T14:10:09;5.05;;;4.10;;
51618;SDS011;38518;53.164;5.430;2022-08-19T14:12:37;5.18;;;4.30;;
51618;SDS011;38518;53.164;5.430;2022-08-19T14:15:05;5.38;;;4.28;;
51618;SDS011;38518;53.164;5.430;2022-08-19T14:17:32;5.18;;;3.88;;
51618;SDS011;38518;53.164;5.430;2022-08-19T14:20:00;4.30;;;3.90;;
51618;SDS011;38518;53.164;5.430;2022-08-19T14:22:33;4.10;;;3.70;;
51618;SDS011;38518;53.164;5.430;2022-08-19T14:25:06;3.97;;;3.50;;
51618;SDS011;38518;53.164;5.430;2022-08-19T14:27:34;3.50;;;3.15;;
51618;SDS011;38518;53.164;5.430;2022-08-19T14:30:01;3.17;;;2.88;;
51618;SDS011;38518;53.164;5.430;2022-08-19T14:32:28;4.10;;;3.67;;
51618;SDS011;38518;53.164;5.430;2022-08-19T14:34:54;5.22;;;3.25;;
51618;SDS011;38518;53.164;5.430;2022-08-19T14:37:20;4.47;;;3.03;;
51618;SDS011;38518;53.164;5.430;2022-08-19T14:39:48;2.92;;;2.53;;
51618;SDS011;38518;53.164;5.430;2022-08-19T14:42:14;4.18;;;2.60;;
51618;SDS011;38518;53.164;5.430;2022-08-19T14:44:40;3.45;;;2.35;;
51618;SDS011;38518;53.164;5.430;2022-08-19T14:47:06;2.63;;;2.10;;
51618;SDS011;38518;53.164;5.430;2022-08-19T14:49:32;3.53;;;2.22;;
51618;SDS011;38518;53.164;5.430;2022-08-19T14:51:58;3.58;;;2.42;;